Time;durP1;ratioP1;P1;durP2;ratioP2;P2;SDS_P1;SDS_P2;PMS_P1;PMS_P2;Temp;Humidity;BMP_temperature;BMP_pressure;BME280_temperature;BME280_humidity;BME280_pressure;Samples;Min_cycle;Max_cycle;Signal;HPM_P1;HPM_P2
2022/12/30 00:00:16;;;;;;;42.00;17.27;;;2.60;99.90;;;;;;4419372;28;657590;-70
2022/12/30 00:03:04;;;;;;;37.73;16.17;;;2.60;99.90;;;;;;4441257;28;658746;-70
2022/12/30 00:05:51;;;;;;;41.40;17.00;;;2.60;99.90;;;;;;4419839;28;657497;-70
2022/12/30 00:08:49;;;;;;;36.35;15.80;;;2.50;99.90;;;;;;4444681;28;657774;-71
2022/12/30 00:11:36;;;;;;;40.43;16.20;;;2.40;99.90;;;;;;4422970;28;657856;-70
2022/12/30 00:33:08;;;;;;;30.50;13.33;;;2.20;99.90;;;;;;4417127;28;658371;-70
2022/12/30 00:35:55;;;;;;;31.50;14.10;;;2.10;99.90;;;;;;4395278;28;657836;-70
2022/12/30 00:38:44;;;;;;;31.47;14.17;;;2.10;99.90;;;;;;4446168;28;658184;-70
2022/12/30 00:44:36;;;;;;;33.70;13.73;;;2.00;99.90;;;;;;4394298;28;658119;-70
2022/12/30 00:47:23;;;;;;;32.57;14.20;;;2.00;99.90;;;;;;4440936;28;657841;-70
2022/12/30 00:56:22;;;;;;;32.50;14.93;;;1.90;99.90;;;;;;4435160;28;657745;-70
2022/12/30 00:59:09;;;;;;;42.23;16.40;;;1.80;99.90;;;;;;4435370;28;657482;-70
2022/12/30 01:01:56;;;;;;;37.20;17.03;;;1.80;99.90;;;;;;4421214;28;657992;-70
2022/12/30 01:04:43;;;;;;;35.47;15.40;;;1.80;99.90;;;;;;4435379;28;658162;-70
2022/12/30 01:07:30;;;;;;;33.37;14.87;;;1.70;99.90;;;;;;4423981;28;657291;-70
2022/12/30 01:10:18;;;;;;;31.00;13.90;;;1.70;99.90;;;;;;4437735;28;659009;-70
2022/12/30 01:13:07;;;;;;;33.90;14.23;;;1.70;99.90;;;;;;4427104;28;658160;-70
2022/12/30 01:15:54;;;;;;;31.20;13.67;;;1.70;99.90;;;;;;4447456;28;657675;-70
2022/12/30 01:18:41;;;;;;;27.93;13.40;;;1.70;99.90;;;;;;4416870;28;657635;-70
2022/12/30 01:21:28;;;;;;;38.85;14.10;;;1.70;99.90;;;;;;4441711;28;658511;-70
2022/12/30 01:24:16;;;;;;;30.83;11.93;;;1.60;99.90;;;;;;4419652;28;658397;-70
2022/12/30 01:27:03;;;;;;;28.33;13.00;;;1.60;99.90;;;;;;4446811;28;657624;-70
2022/12/30 01:29:52;;;;;;;34.03;15.77;;;1.60;99.90;;;;;;4424524;28;657710;-70
2022/12/30 01:32:39;;;;;;;32.30;14.53;;;1.60;99.90;;;;;;4447018;28;657802;-70
2022/12/30 01:35:26;;;;;;;31.73;13.98;;;1.60;99.90;;;;;;4424759;28;657395;-70
2022/12/30 01:38:15;;;;;;;36.27;13.67;;;1.60;99.90;;;;;;4444068;28;657392;-70
2022/12/30 01:41:02;;;;;;;34.35;14.77;;;1.50;99.90;;;;;;4427494;28;658355;-70
2022/12/30 01:43:50;;;;;;;30.33;14.23;;;1.50;99.90;;;;;;4443154;28;657727;-70
2022/12/30 01:46:38;;;;;;;33.17;15.83;;;1.50;99.90;;;;;;4420192;28;658466;-70
2022/12/30 01:49:26;;;;;;;52.90;23.83;;;1.40;99.90;;;;;;4426433;28;657678;-70
2022/12/30 01:52:13;;;;;;;49.57;24.07;;;1.40;99.90;;;;;;4451149;28;658408;-70
2022/12/30 01:55:03;;;;;;;47.93;22.80;;;1.40;99.90;;;;;;4424006;28;657717;-70
2022/12/30 01:57:51;;;;;;;50.33;22.07;;;1.50;99.90;;;;;;4429676;28;658062;-70
2022/12/30 02:00:38;;;;;;;40.13;18.40;;;1.50;99.90;;;;;;4434845;28;658703;-70
2022/12/30 02:03:27;;;;;;;34.78;15.55;;;1.50;99.90;;;;;;4428814;28;657959;-70
2022/12/30 02:06:15;;;;;;;34.80;14.17;;;1.60;99.90;;;;;;4447102;28;657529;-70
2022/12/30 02:09:02;;;;;;;31.07;13.77;;;1.50;99.90;;;;;;4423906;28;659405;-70
2022/12/30 02:11:49;;;;;;;32.87;14.43;;;1.60;99.90;;;;;;4443825;28;657875;-70
2022/12/30 02:14:37;;;;;;;34.40;14.03;;;1.60;99.90;;;;;;4418175;28;658161;-70
2022/12/30 02:17:28;;;;;;;32.53;13.73;;;1.60;99.90;;;;;;4440614;28;658031;-70
2022/12/30 02:20:36;;;;;;;30.50;13.63;;;1.60;99.90;;;;;;4418527;28;659292;-70
2022/12/30 02:23:47;;;;;;;29.33;13.97;;;1.60;99.90;;;;;;4420231;28;657419;-70
2022/12/30 02:27:04;;;;;;;27.40;13.35;;;1.50;99.90;;;;;;4418431;28;657882;-70
2022/12/30 02:30:11;;;;;;;26.37;12.30;;;1.50;99.90;;;;;;4422038;28;657404;-70
2022/12/30 02:33:19;;;;;;;29.53;11.73;;;1.50;99.90;;;;;;4414471;28;658041;-70
2022/12/30 02:36:09;;;;;;;27.30;11.77;;;1.60;99.90;;;;;;4394973;28;658303;-70
2022/12/30 02:39:00;;;;;;;25.27;11.93;;;1.70;99.90;;;;;;4422081;28;657163;-70
2022/12/30 02:44:57;;;;;;;29.43;12.33;;;1.70;99.90;;;;;;4421725;28;657286;-70
2022/12/30 02:47:46;;;;;;;25.33;11.73;;;1.70;99.90;;;;;;4421508;28;657728;-70
2022/12/30 02:53:40;;;;;;;26.47;12.23;;;1.80;99.90;;;;;;4405503;28;658234;-70
2022/12/30 02:56:28;;;;;;;28.17;13.13;;;1.80;99.90;;;;;;4445564;28;658534;-70
2022/12/30 03:05:55;;;;;;;30.40;12.32;;;1.70;99.90;;;;;;4335276;28;657281;-70
2022/12/30 03:08:44;;;;;;;24.97;11.60;;;1.80;99.90;;;;;;4336373;28;658162;-70
2022/12/30 03:11:33;;;;;;;28.40;12.73;;;1.90;99.90;;;;;;4384367;28;657746;-70
2022/12/30 03:14:26;;;;;;;26.27;11.80;;;1.90;99.90;;;;;;4421847;28;657503;-70
2022/12/30 03:17:15;;;;;;;24.77;10.57;;;2.00;99.90;;;;;;4421068;28;658482;-70
2022/12/30 03:20:03;;;;;;;22.13;11.33;;;2.00;99.90;;;;;;4424146;28;658502;-70
2022/12/30 03:29:10;;;;;;;21.50;9.97;;;2.10;99.90;;;;;;4416054;28;657527;-70
2022/12/30 03:31:57;;;;;;;21.50;9.83;;;2.10;99.90;;;;;;4414280;28;658032;-70
2022/12/30 03:34:44;;;;;;;23.73;10.00;;;2.20;99.90;;;;;;4443551;28;656087;-70
2022/12/30 03:37:35;;;;;;;20.03;8.97;;;2.20;99.90;;;;;;4424820;28;657495;-70
2022/12/30 03:40:26;;;;;;;18.53;8.07;;;2.30;99.90;;;;;;4428534;28;657458;-70
2022/12/30 03:43:13;;;;;;;21.10;7.57;;;2.30;99.90;;;;;;4423094;28;656905;-70
2022/12/30 03:46:01;;;;;;;15.20;6.90;;;2.40;99.90;;;;;;4421706;28;656765;-70
2022/12/30 03:48:48;;;;;;;15.10;7.03;;;2.40;99.90;;;;;;4443522;28;657444;-70
2022/12/30 03:51:35;;;;;;;16.47;6.97;;;2.50;99.90;;;;;;4416370;28;658170;-70
2022/12/30 03:54:23;;;;;;;14.27;6.90;;;2.50;99.90;;;;;;4442453;28;657461;-70
2022/12/30 03:57:12;;;;;;;18.30;6.97;;;2.60;99.90;;;;;;4434686;28;656918;-70
2022/12/30 03:59:59;;;;;;;13.10;6.87;;;2.60;99.90;;;;;;4442806;28;656644;-70
2022/12/30 04:02:47;;;;;;;13.37;6.63;;;2.70;99.90;;;;;;4419997;28;656415;-71
2022/12/30 04:05:35;;;;;;;19.20;7.27;;;2.80;99.90;;;;;;4430337;28;656705;-70
2022/12/30 04:08:23;;;;;;;16.97;7.37;;;2.80;99.90;;;;;;4443809;28;658291;-70
2022/12/30 04:11:10;;;;;;;17.53;8.60;;;2.80;99.90;;;;;;4438206;28;656449;-70
2022/12/30 04:13:59;;;;;;;22.20;10.10;;;2.90;99.90;;;;;;4446886;28;656539;-70
2022/12/30 04:16:46;;;;;;;26.07;11.53;;;2.90;99.90;;;;;;4422226;28;657532;-70
2022/12/30 04:19:33;;;;;;;25.63;11.50;;;2.90;99.90;;;;;;4441576;28;658267;-70
2022/12/30 04:22:20;;;;;;;26.30;11.77;;;3.00;99.90;;;;;;4426590;28;657822;-71
2022/12/30 04:25:08;;;;;;;26.37;11.13;;;3.00;99.90;;;;;;4443564;28;658296;-70
2022/12/30 04:27:56;;;;;;;28.57;11.00;;;3.10;99.90;;;;;;4417198;28;657444;-70
2022/12/30 04:30:44;;;;;;;28.57;11.30;;;3.10;99.90;;;;;;4431972;28;658324;-70
2022/12/30 04:33:32;;;;;;;27.70;12.10;;;3.20;99.90;;;;;;4423155;28;657843;-70
2022/12/30 04:36:19;;;;;;;29.37;12.40;;;3.20;99.90;;;;;;4443089;28;657561;-70
2022/12/30 04:39:06;;;;;;;31.47;13.87;;;3.20;99.90;;;;;;4423300;28;657771;-70
2022/12/30 04:41:53;;;;;;;31.40;13.57;;;3.40;99.90;;;;;;4443712;28;658780;-70
2022/12/30 04:44:41;;;;;;;32.43;13.87;;;3.50;99.90;;;;;;4421668;28;657626;-70
2022/12/30 04:47:30;;;;;;;28.33;13.40;;;3.70;99.90;;;;;;4440575;28;658403;-70
2022/12/30 04:50:17;;;;;;;29.77;13.47;;;3.70;99.90;;;;;;4414254;28;658925;-70
2022/12/30 04:53:04;;;;;;;28.67;13.50;;;3.80;99.90;;;;;;4441353;28;658614;-70
2022/12/30 04:55:53;;;;;;;31.27;13.97;;;4.00;99.90;;;;;;4419289;28;657726;-70
2022/12/30 04:58:40;;;;;;;30.60;14.57;;;4.10;99.90;;;;;;4439135;28;657998;-70
2022/12/30 05:01:27;;;;;;;28.07;14.00;;;4.10;99.90;;;;;;4445083;28;658266;-70
2022/12/30 05:04:17;;;;;;;32.93;14.30;;;4.20;99.90;;;;;;4443839;28;657539;-70
2022/12/30 05:07:04;;;;;;;28.30;14.47;;;4.20;99.90;;;;;;4443765;28;658114;-70
2022/12/30 05:09:51;;;;;;;36.37;14.00;;;4.30;99.90;;;;;;4425958;28;657808;-70
2022/12/30 05:12:39;;;;;;;28.20;13.40;;;4.40;99.90;;;;;;4443974;28;658510;-70
2022/12/30 05:15:26;;;;;;;33.57;14.47;;;4.50;99.90;;;;;;4428271;28;657325;-70
2022/12/30 05:18:13;;;;;;;33.00;15.10;;;4.70;99.90;;;;;;4441471;28;657659;-70
2022/12/30 05:21:02;;;;;;;32.73;14.70;;;4.70;99.90;;;;;;4424073;28;657823;-70
2022/12/30 05:27:02;;;;;;;25.80;12.93;;;4.70;99.90;;;;;;4385375;28;657843;-70
2022/12/30 05:29:50;;;;;;;27.37;14.47;;;4.70;99.90;;;;;;4443237;28;658000;-70
2022/12/30 05:32:37;;;;;;;26.73;13.63;;;4.80;99.90;;;;;;4323151;28;658691;-70
2022/12/30 05:35:24;;;;;;;39.93;14.83;;;4.90;99.90;;;;;;4268995;28;657937;-70
2022/12/30 05:38:13;;;;;;;26.13;13.30;;;4.90;99.90;;;;;;4268737;28;658336;-70
2022/12/30 05:41:00;;;;;;;29.35;14.65;;;4.90;99.90;;;;;;4421271;28;657560;-70
2022/12/30 05:43:48;;;;;;;34.90;14.90;;;5.00;99.90;;;;;;4438738;28;658079;-70
2022/12/30 05:46:35;;;;;;;31.50;14.80;;;4.90;99.90;;;;;;4424856;28;657911;-70
2022/12/30 05:49:22;;;;;;;32.00;13.77;;;4.90;99.90;;;;;;4444769;28;658612;-70
2022/12/30 05:52:10;;;;;;;33.00;15.33;;;4.90;99.90;;;;;;4439266;28;657750;-70
2022/12/30 05:54:59;;;;;;;31.37;15.80;;;4.90;99.90;;;;;;4450626;28;657891;-70
2022/12/30 05:57:46;;;;;;;30.30;14.47;;;4.70;99.90;;;;;;4422532;28;658282;-70
2022/12/30 06:00:33;;;;;;;34.63;16.67;;;4.70;99.90;;;;;;4445528;28;657977;-70
2022/12/30 06:03:21;;;;;;;33.70;16.97;;;4.70;99.90;;;;;;4428323;28;657688;-70
2022/12/30 06:06:08;;;;;;;39.10;19.27;;;4.70;99.90;;;;;;4442309;28;658086;-70
2022/12/30 06:08:56;;;;;;;37.53;18.83;;;4.60;99.90;;;;;;4423708;28;657675;-70
2022/12/30 06:11:44;;;;;;;38.63;17.67;;;4.60;99.90;;;;;;4444327;28;657735;-70
2022/12/30 06:14:32;;;;;;;42.23;19.80;;;4.50;99.90;;;;;;4419267;28;657400;-70
2022/12/30 06:17:19;;;;;;;41.70;20.00;;;4.60;99.90;;;;;;4442125;28;657314;-70
2022/12/30 06:20:07;;;;;;;40.30;19.30;;;4.60;99.90;;;;;;4422511;28;657405;-70
2022/12/30 06:22:54;;;;;;;38.10;18.10;;;4.60;99.90;;;;;;4438260;28;657294;-70
2022/12/30 06:25:41;;;;;;;37.60;18.50;;;4.60;99.90;;;;;;4417132;28;657518;-70
2022/12/30 06:28:31;;;;;;;36.53;18.60;;;4.60;99.90;;;;;;4437334;28;658031;-70
2022/12/30 06:31:18;;;;;;;38.20;18.37;;;4.60;99.90;;;;;;4416179;28;658179;-70
2022/12/30 06:34:05;;;;;;;38.03;17.77;;;4.60;99.90;;;;;;4421320;28;658456;-70
2022/12/30 06:36:52;;;;;;;27.13;13.73;;;4.60;99.90;;;;;;4440955;28;658096;-70
2022/12/30 06:39:40;;;;;;;37.57;19.03;;;4.60;99.90;;;;;;4426785;28;658023;-70
2022/12/30 06:42:27;;;;;;;43.37;19.07;;;4.80;99.90;;;;;;4440324;28;657981;-71
2022/12/30 06:45:17;;;;;;;35.93;17.03;;;4.70;99.90;;;;;;4438966;28;657547;-70
2022/12/30 06:48:05;;;;;;;39.27;17.80;;;4.70;99.90;;;;;;4440482;28;658430;-70
2022/12/30 06:50:59;;;;;;;37.13;18.40;;;4.80;99.90;;;;;;4419484;28;658492;-69
2022/12/30 06:53:46;;;;;;;39.73;17.37;;;4.80;99.90;;;;;;4421532;28;657422;-70
2022/12/30 06:56:33;;;;;;;38.33;17.92;;;4.70;99.90;;;;;;4435413;28;658605;-70
2022/12/30 06:59:20;;;;;;;37.83;17.23;;;4.80;99.90;;;;;;4419574;28;657705;-70
2022/12/30 07:02:09;;;;;;;39.27;19.07;;;4.70;99.90;;;;;;4437164;28;657636;-70
2022/12/30 07:04:57;;;;;;;40.10;18.90;;;4.70;99.90;;;;;;4417308;28;658802;-70
2022/12/30 07:07:44;;;;;;;38.73;18.83;;;4.80;99.90;;;;;;4436026;28;657268;-70
2022/12/30 07:10:32;;;;;;;42.50;19.63;;;4.80;99.90;;;;;;4416095;28;657889;-68
2022/12/30 07:13:19;;;;;;;39.07;20.43;;;4.80;99.90;;;;;;4441677;28;658112;-68
2022/12/30 07:16:07;;;;;;;39.42;19.05;;;4.70;99.90;;;;;;4415715;28;657369;-67
2022/12/30 07:18:56;;;;;;;38.63;19.17;;;4.80;99.90;;;;;;4435745;28;657698;-68
2022/12/30 07:21:43;;;;;;;40.90;18.83;;;4.80;99.90;;;;;;4406817;28;657888;-68
2022/12/30 07:24:30;;;;;;;36.92;19.05;;;4.70;99.90;;;;;;4415140;28;657946;-68
2022/12/30 07:27:17;;;;;;;39.03;19.00;;;4.70;99.90;;;;;;4439709;28;657818;-68
2022/12/30 07:30:06;;;;;;;38.53;18.93;;;4.60;99.90;;;;;;4431195;28;658572;-68
2022/12/30 07:32:53;;;;;;;39.83;17.40;;;4.60;99.90;;;;;;4434603;28;657686;-68
2022/12/30 07:35:42;;;;;;;35.07;18.60;;;4.70;99.90;;;;;;4418814;28;657656;-68
2022/12/30 07:38:30;;;;;;;42.53;18.97;;;4.70;99.90;;;;;;4435480;28;657635;-68
2022/12/30 07:41:17;;;;;;;41.23;18.73;;;4.60;99.90;;;;;;4414901;28;659205;-68
2022/12/30 07:44:04;;;;;;;37.15;18.88;;;4.60;99.90;;;;;;4435229;28;657817;-68
2022/12/30 07:46:52;;;;;;;41.37;19.73;;;4.60;99.90;;;;;;4414642;28;658858;-68
2022/12/30 07:49:40;;;;;;;40.37;20.73;;;4.60;99.90;;;;;;4437466;28;656867;-68
2022/12/30 07:52:29;;;;;;;41.60;20.37;;;4.60;99.90;;;;;;4414520;28;658770;-68
2022/12/30 07:55:16;;;;;;;42.70;21.10;;;4.50;99.90;;;;;;4415609;28;657801;-68
2022/12/30 07:58:03;;;;;;;40.30;20.70;;;4.60;99.90;;;;;;4436505;28;657788;-68
2022/12/30 08:00:51;;;;;;;42.37;20.40;;;4.50;99.90;;;;;;4416818;28;657432;-68
2022/12/30 08:03:38;;;;;;;42.80;21.43;;;4.40;99.90;;;;;;4433981;28;657978;-67
2022/12/30 08:06:25;;;;;;;43.20;19.77;;;4.40;99.90;;;;;;4411398;28;657550;-68
2022/12/30 08:09:14;;;;;;;43.13;21.27;;;4.40;99.90;;;;;;4436367;28;658473;-67
2022/12/30 08:12:01;;;;;;;39.83;20.87;;;4.40;99.90;;;;;;4417994;28;658046;-68
2022/12/30 08:14:48;;;;;;;45.53;21.43;;;4.50;99.90;;;;;;4438786;28;657394;-68
2022/12/30 08:17:36;;;;;;;47.70;22.80;;;4.50;99.90;;;;;;4416909;28;657268;-68
2022/12/30 08:20:23;;;;;;;46.43;22.73;;;4.40;99.90;;;;;;4448167;28;658026;-68
2022/12/30 08:23:10;;;;;;;46.25;23.48;;;4.50;99.90;;;;;;4432309;28;657783;-68
2022/12/30 08:26:03;;;;;;;45.87;22.40;;;4.50;99.90;;;;;;4445392;28;657881;-68
2022/12/30 08:28:51;;;;;;;47.80;23.60;;;4.50;99.90;;;;;;4424621;28;657422;-68
2022/12/30 08:31:38;;;;;;;45.40;23.10;;;4.60;99.90;;;;;;4444290;28;657951;-68
2022/12/30 08:34:26;;;;;;;50.17;22.97;;;4.60;99.90;;;;;;4427929;28;657328;-68
2022/12/30 08:37:13;;;;;;;43.10;21.93;;;4.70;99.90;;;;;;4446998;28;657652;-68
2022/12/30 08:40:00;;;;;;;44.43;22.50;;;4.80;99.90;;;;;;4425315;28;657833;-68
2022/12/30 08:42:49;;;;;;;43.90;22.07;;;4.80;99.90;;;;;;4444878;28;658952;-68
2022/12/30 08:45:36;;;;;;;46.60;23.00;;;4.80;99.90;;;;;;4422317;28;658328;-68
2022/12/30 08:48:23;;;;;;;46.58;22.73;;;4.80;99.90;;;;;;4444461;28;657913;-68
2022/12/30 08:51:11;;;;;;;46.23;22.23;;;4.90;99.90;;;;;;4423543;28;658064;-68
2022/12/30 08:53:58;;;;;;;41.73;20.57;;;5.00;99.90;;;;;;4444289;28;658071;-68
2022/12/30 08:56:48;;;;;;;40.13;19.63;;;5.00;99.90;;;;;;4421927;28;658439;-68
2022/12/30 08:59:37;;;;;;;38.05;17.48;;;5.20;99.90;;;;;;4426524;28;657325;-68
2022/12/30 09:02:24;;;;;;;39.27;19.43;;;5.30;99.90;;;;;;4433672;28;657191;-68
2022/12/30 09:05:11;;;;;;;37.20;18.07;;;5.20;99.90;;;;;;4416611;28;657896;-68
2022/12/30 09:07:58;;;;;;;37.83;19.67;;;5.40;99.90;;;;;;4440355;28;657289;-68
2022/12/30 09:10:46;;;;;;;33.80;15.63;;;5.30;99.90;;;;;;4423575;28;658733;-68
2022/12/30 09:13:36;;;;;;;38.10;19.50;;;5.50;99.90;;;;;;4441644;28;658641;-68
2022/12/30 09:16:24;;;;;;;40.53;20.60;;;5.60;99.90;;;;;;4416475;28;658144;-68
2022/12/30 09:19:12;;;;;;;38.97;18.17;;;5.90;99.90;;;;;;4423964;28;657697;-68
2022/12/30 09:21:59;;;;;;;34.07;16.70;;;6.00;99.90;;;;;;4421847;28;657178;-67
2022/12/30 09:24:46;;;;;;;35.53;16.33;;;6.40;99.90;;;;;;4412127;28;657509;-68
2022/12/30 09:27:33;;;;;;;36.75;18.85;;;6.70;99.90;;;;;;4434245;28;657812;-68
2022/12/30 09:30:21;;;;;;;39.63;19.17;;;6.50;99.90;;;;;;4407384;28;657676;-68
2022/12/30 09:33:09;;;;;;;40.47;19.03;;;6.50;99.90;;;;;;4418280;28;658856;-68
2022/12/30 09:35:56;;;;;;;35.73;17.40;;;6.50;99.90;;;;;;4404512;28;658065;-68
2022/12/30 09:38:44;;;;;;;32.10;14.83;;;6.50;99.90;;;;;;4425007;28;657669;-68
2022/12/30 09:44:53;;;;;;;37.03;16.37;;;6.50;99.90;;;;;;4406928;28;657712;-68
2022/12/30 09:47:43;;;;;;;34.87;17.20;;;6.50;99.90;;;;;;4405871;28;657917;-68
2022/12/30 09:50:35;;;;;;;35.93;16.70;;;6.30;99.90;;;;;;4406786;28;657458;-68
2022/12/30 09:53:25;;;;;;;32.70;16.60;;;6.40;99.90;;;;;;4402675;28;658161;-68
2022/12/30 09:56:14;;;;;;;30.90;15.77;;;6.50;99.90;;;;;;4395004;28;657616;-68
2022/12/30 09:59:04;;;;;;;32.07;16.90;;;7.00;99.90;;;;;;4412090;28;658897;-69
2022/12/30 10:01:54;;;;;;;30.90;16.10;;;7.40;99.90;;;;;;4409760;28;657555;-69
2022/12/30 10:04:41;;;;;;;30.77;14.87;;;8.40;99.90;;;;;;4408428;28;657927;-69
2022/12/30 10:07:33;;;;;;;31.70;15.53;;;9.30;99.90;;;;;;4423184;28;658176;-69
2022/12/30 10:10:21;;;;;;;28.33;15.53;;;8.90;99.90;;;;;;4381730;28;659813;-69
2022/12/30 10:13:11;;;;;;;31.63;16.20;;;9.10;99.90;;;;;;4423819;28;657914;-68
2022/12/30 10:16:01;;;;;;;32.50;16.20;;;8.50;99.90;;;;;;4396393;28;657765;-68
2022/12/30 10:19:00;;;;;;;31.80;16.33;;;8.60;99.90;;;;;;4405578;28;657815;-68
2022/12/30 10:21:50;;;;;;;33.17;16.40;;;8.50;99.90;;;;;;4400460;28;657878;-69
2022/12/30 10:24:46;;;;;;;31.03;16.10;;;8.40;99.90;;;;;;4418382;28;658410;-69
2022/12/30 10:27:39;;;;;;;31.63;16.10;;;9.40;99.90;;;;;;4415105;28;657602;-68
2022/12/30 10:30:32;;;;;;;32.47;15.60;;;9.30;99.90;;;;;;4405186;28;658141;-68
2022/12/30 10:33:20;;;;;;;31.60;15.67;;;10.00;99.90;;;;;;4422025;28;658372;-69
2022/12/30 10:36:13;;;;;;;28.63;14.90;;;10.20;99.90;;;;;;4425839;28;660317;-68
2022/12/30 10:39:05;;;;;;;31.20;14.50;;;10.90;99.90;;;;;;4406644;28;658544;-68
2022/12/30 10:42:07;;;;;;;30.63;15.47;;;10.30;99.90;;;;;;4420200;28;659048;-68
2022/12/30 10:45:02;;;;;;;26.17;15.03;;;10.70;99.90;;;;;;4413217;28;659458;-68
2022/12/30 10:47:56;;;;;;;26.83;15.02;;;11.10;99.90;;;;;;4415297;28;659365;-68
2022/12/30 10:50:45;;;;;;;27.87;14.47;;;11.00;99.90;;;;;;4425730;28;659421;-68
2022/12/30 10:53:32;;;;;;;33.77;16.47;;;10.60;99.90;;;;;;4422752;28;659572;-67
2022/12/30 10:56:23;;;;;;;33.87;16.33;;;9.90;99.90;;;;;;4441192;28;658458;-67
2022/12/30 10:59:14;;;;;;;30.83;17.20;;;9.70;99.90;;;;;;4435137;28;657462;-67
2022/12/30 11:02:04;;;;;;;32.47;15.83;;;9.40;99.90;;;;;;4419463;28;657662;-67
2022/12/30 11:04:51;;;;;;;31.17;17.60;;;9.10;99.90;;;;;;4417070;28;657648;-67
2022/12/30 11:07:40;;;;;;;35.33;18.23;;;7.90;99.90;;;;;;4427111;28;658161;-67
2022/12/30 11:10:29;;;;;;;34.23;16.43;;;7.80;99.90;;;;;;4421395;28;658859;-67
2022/12/30 11:16:25;;;;;;;32.90;16.90;;;8.00;99.90;;;;;;4397852;28;658613;-67
2022/12/30 11:19:23;;;;;;;38.27;18.67;;;8.10;99.90;;;;;;4421541;28;657463;-67
2022/12/30 11:22:10;;;;;;;35.87;18.30;;;8.00;99.90;;;;;;4404004;28;658098;-67
2022/12/30 11:25:00;;;;;;;33.33;17.90;;;8.00;99.90;;;;;;4444625;28;658332;-67
2022/12/30 11:27:49;;;;;;;33.53;16.77;;;8.10;99.90;;;;;;4421975;28;658046;-67
2022/12/30 11:30:37;;;;;;;37.37;18.13;;;7.90;99.90;;;;;;4422758;28;657902;-67
2022/12/30 11:33:27;;;;;;;33.17;16.85;;;7.90;99.90;;;;;;4424856;28;657555;-68
2022/12/30 11:36:22;;;;;;;32.80;17.20;;;8.10;99.90;;;;;;4245246;28;657635;-68
2022/12/30 11:39:26;;;;;;;31.50;17.00;;;8.20;99.90;;;;;;4247757;28;658188;-68
2022/12/30 11:42:28;;;;;;;35.73;17.13;;;8.40;99.90;;;;;;4412547;28;657983;-67
2022/12/30 11:45:18;;;;;;;30.17;15.77;;;8.50;99.90;;;;;;4402063;28;657611;-67
2022/12/30 11:48:06;;;;;;;28.40;14.87;;;8.50;99.90;;;;;;4440604;28;658229;-67
2022/12/30 11:50:54;;;;;;;29.97;14.73;;;8.50;99.90;;;;;;4447054;28;658245;-67
2022/12/30 11:53:42;;;;;;;29.30;15.23;;;8.30;99.90;;;;;;4424014;28;658430;-67
2022/12/30 11:56:29;;;;;;;24.00;13.43;;;8.20;99.90;;;;;;4439521;28;657848;-67
2022/12/30 11:59:17;;;;;;;30.23;14.43;;;8.40;99.90;;;;;;4419416;28;658266;-67
2022/12/30 12:02:15;;;;;;;30.67;14.10;;;8.70;99.90;;;;;;4437869;28;658686;-67
2022/12/30 12:05:02;;;;;;;27.20;14.50;;;8.70;99.90;;;;;;4392284;28;657642;-67
2022/12/30 12:07:51;;;;;;;27.67;13.53;;;8.30;99.90;;;;;;4439404;28;657289;-67
2022/12/30 12:10:39;;;;;;;29.77;13.60;;;9.20;99.90;;;;;;4412254;28;658268;-68
2022/12/30 12:13:29;;;;;;;25.80;13.20;;;10.40;99.90;;;;;;4418084;28;657765;-67
2022/12/30 12:16:18;;;;;;;26.73;12.67;;;11.70;99.90;;;;;;4416491;28;659634;-67
2022/12/30 12:19:19;;;;;;;23.70;12.80;;;13.10;99.90;;;;;;4422602;28;658830;-68
2022/12/30 12:22:11;;;;;;;23.07;12.80;;;14.20;90.90;;;;;;4370673;28;658750;-68
2022/12/30 12:25:02;;;;;;;23.83;13.30;;;14.90;77.70;;;;;;4392234;28;659052;-67
2022/12/30 12:27:50;;;;;;;23.73;14.17;;;14.10;84.50;;;;;;4376202;28;658922;-68
2022/12/30 12:30:49;;;;;;;24.90;15.13;;;14.20;84.80;;;;;;4417433;28;660724;-67
2022/12/30 12:33:41;;;;;;;26.87;14.43;;;14.40;76.50;;;;;;4371233;28;659363;-68
2022/12/30 12:36:33;;;;;;;24.27;14.63;;;14.10;76.20;;;;;;4398067;28;660074;-68
2022/12/30 12:39:24;;;;;;;27.67;14.23;;;14.00;78.80;;;;;;4390475;28;658824;-67
2022/12/30 12:42:13;;;;;;;22.07;12.63;;;15.20;75.70;;;;;;4401509;28;658844;-68
2022/12/30 12:45:20;;;;;;;27.90;15.57;;;15.50;72.10;;;;;;4398538;28;658343;-67
2022/12/30 12:48:20;;;;;;;30.73;14.90;;;15.80;66.60;;;;;;4396885;28;659850;-67
2022/12/30 12:51:17;;;;;;;24.00;14.13;;;14.60;69.60;;;;;;4369499;28;659539;-68
2022/12/30 12:54:18;;;;;;;25.47;14.80;;;15.50;70.00;;;;;;4388571;28;659387;-67
2022/12/30 12:57:09;;;;;;;29.00;16.10;;;14.30;70.60;;;;;;4391217;28;659066;-67
2022/12/30 13:00:07;;;;;;;29.57;16.13;;;14.60;71.90;;;;;;4398313;28;658367;-67
2022/12/30 13:03:17;;;;;;;31.43;16.20;;;15.10;70.90;;;;;;4396058;28;659172;-67
2022/12/30 13:06:12;;;;;;;26.73;15.47;;;15.60;66.10;;;;;;4410984;28;658549;-67
2022/12/30 13:09:24;;;;;;;33.13;14.63;;;15.90;65.40;;;;;;4395279;28;658517;-67
2022/12/30 13:12:13;;;;;;;28.20;15.27;;;15.50;64.70;;;;;;4371686;28;659049;-68
2022/12/30 13:15:04;;;;;;;28.73;15.73;;;15.10;66.00;;;;;;4406763;28;658501;-67
2022/12/30 13:17:52;;;;;;;26.70;16.40;;;14.60;68.70;;;;;;4395778;28;659025;-68
2022/12/30 13:20:45;;;;;;;31.07;16.90;;;14.70;68.60;;;;;;4418000;28;658382;-67
2022/12/30 13:23:34;;;;;;;28.97;15.70;;;14.20;68.50;;;;;;4414742;28;658927;-68
2022/12/30 13:26:23;;;;;;;28.03;16.10;;;13.90;71.80;;;;;;4412587;28;658448;-68
2022/12/30 13:29:10;;;;;;;31.17;16.50;;;14.00;71.60;;;;;;4415482;28;658733;-67
2022/12/30 13:32:02;;;;;;;29.60;15.80;;;13.80;71.90;;;;;;4439888;28;659420;-68
2022/12/30 13:34:53;;;;;;;31.57;16.67;;;13.70;71.90;;;;;;4407399;28;659818;-67
2022/12/30 13:37:42;;;;;;;30.63;15.57;;;13.80;72.00;;;;;;4398613;28;659294;-67
2022/12/30 13:40:39;;;;;;;29.10;16.27;;;13.80;72.50;;;;;;4440024;28;658477;-67
2022/12/30 13:43:30;;;;;;;30.27;15.97;;;13.90;71.60;;;;;;4418829;28;658808;-67
2022/12/30 13:46:18;;;;;;;32.03;15.37;;;14.30;70.00;;;;;;4417333;28;658848;-67
2022/12/30 13:49:12;;;;;;;32.47;16.27;;;14.30;68.30;;;;;;4422881;28;659204;-67
2022/12/30 13:52:00;;;;;;;30.93;15.97;;;14.30;68.40;;;;;;4416740;28;658618;-67
2022/12/30 13:54:50;;;;;;;26.73;15.40;;;14.00;69.40;;;;;;4413265;28;659194;-67
2022/12/30 13:57:38;;;;;;;30.40;15.93;;;13.90;69.70;;;;;;4418032;28;658993;-67
2022/12/30 14:00:28;;;;;;;29.33;15.40;;;13.70;71.40;;;;;;4428275;28;659200;-67
2022/12/30 14:03:35;;;;;;;27.80;14.27;;;14.20;70.40;;;;;;4421140;28;658536;-67
2022/12/30 14:06:41;;;;;;;28.97;14.93;;;14.50;68.80;;;;;;4401387;28;659280;-67
2022/12/30 14:09:29;;;;;;;33.07;16.33;;;14.20;69.50;;;;;;4420619;28;659260;-68
2022/12/30 14:12:34;;;;;;;30.87;15.70;;;14.30;67.90;;;;;;4419704;28;658533;-67
2022/12/30 14:15:53;;;;;;;28.20;15.40;;;14.20;67.90;;;;;;4424370;28;658751;-66
2022/12/30 14:18:45;;;;;;;32.08;14.68;;;13.80;68.40;;;;;;4416613;28;658715;-66
2022/12/30 14:21:49;;;;;;;31.77;15.43;;;13.50;69.80;;;;;;4420176;28;658917;-66
2022/12/30 14:24:49;;;;;;;27.60;14.83;;;13.10;70.80;;;;;;4394441;28;659155;-64
2022/12/30 14:27:44;;;;;;;25.77;14.07;;;12.30;73.10;;;;;;4422558;28;658653;-67
2022/12/30 14:30:37;;;;;;;29.20;15.30;;;11.50;76.00;;;;;;4393164;28;659028;-66
2022/12/30 14:33:28;;;;;;;32.23;16.57;;;10.80;81.40;;;;;;4419942;28;659132;-66
2022/12/30 14:36:18;;;;;;;29.00;16.27;;;10.00;88.70;;;;;;4397026;28;658699;-66
2022/12/30 14:39:13;;;;;;;28.63;14.53;;;9.50;94.10;;;;;;4411604;28;658472;-67
2022/12/30 14:42:03;;;;;;;29.83;15.10;;;8.40;99.90;;;;;;4396069;28;658043;-67
2022/12/30 14:44:51;;;;;;;32.30;14.70;;;7.70;99.90;;;;;;4416898;28;657559;-67
2022/12/30 14:47:39;;;;;;;29.77;15.17;;;7.50;99.90;;;;;;4440433;28;658278;-68
2022/12/30 14:50:29;;;;;;;30.43;15.13;;;7.20;99.90;;;;;;4419248;28;657440;-67
2022/12/30 14:53:16;;;;;;;35.73;17.17;;;6.90;99.90;;;;;;4413896;28;657952;-67
2022/12/30 14:56:05;;;;;;;35.57;16.23;;;6.70;99.90;;;;;;4445177;28;658288;-68
2022/12/30 14:58:52;;;;;;;30.15;15.77;;;6.40;99.90;;;;;;4418772;28;658318;-68
2022/12/30 15:01:44;;;;;;;33.63;15.80;;;6.00;99.90;;;;;;4439191;28;658500;-68
2022/12/30 15:04:31;;;;;;;37.93;18.23;;;5.60;99.90;;;;;;4400557;28;657650;-68
2022/12/30 15:07:22;;;;;;;37.47;17.40;;;5.40;99.90;;;;;;4447635;28;658172;-68
2022/12/30 15:10:24;;;;;;;42.60;19.63;;;5.10;99.90;;;;;;4444094;28;657489;-69
2022/12/30 15:13:18;;;;;;;50.67;22.87;;;4.90;99.90;;;;;;4402754;28;657399;-68
2022/12/30 15:16:07;;;;;;;39.77;20.03;;;4.80;99.90;;;;;;4411672;28;657616;-70